Buffalo, MT (59418)

11:47 PM MST on February 07, 2016 (GMT -0700)
MesoWest | | Change Station
CLOSE
Current Station
Personal Weather Station
Location: Buffalo, MT
Elevation: 6049 ft
Nearby Weather Stations

Elev 6049 ft 46.79 °N, 109.51 °W | Updated 143 days ago

Partly Cloudy
Partly Cloudy
29 °F
Feels Like 20 °F
N
8
Wind Variable Wind from East
Gusts 14 mph

Today
High -- | Low -- °F
--% Chance of Precip.
Yesterday
High -- | Low -- °F
Precip. -- in
Pressure 30.53 in
Visibility 10.0 miles
Clouds Clear
Windchill 20 °F
Dew Point 14 °F
Humidity 54%
Rainfall in
Snow Depth Not available.
7:35 AM 5:30 PM
Waning Crescent, 0% visible
METAR KLWT 080554Z AUTO 11004KT 10SM CLR M06/M11 A3041 RMK AO2 SLP338 T10561111 10000 21061 58002
Pressure 30.53 in
Visibility 10.0 miles
Clouds Clear
Windchill 20 °F
Dew Point 14 °F
Humidity 54%
Rainfall in
Snow Depth Not available.
7:35 AM 5:30 PM
Waning Crescent, 0% visible
METAR KLWT 080554Z AUTO 11004KT 10SM CLR M06/M11 A3041 RMK AO2 SLP338 T10561111 10000 21061 58002

10-Day Weather Forecast

Almanac

Astronomy

Feb. 07, 2016 Rise Set
Actual Time
Civil Twilight
Nautical Twilight
Astronomical Twilight
Moon
Length of Visible Light
Length of Day
Tomorrow will be .
, % of the Moon is Illuminated

Today's Extremes

State Highs State Lows

Community

WunderPhotos

Upload Photos

1,891,395 photos uploaded!

WunderBlog® & News

Nearby

Air Quality

  Air Quality AQ Index Pollutant
Not available.

Snow Depth

Station Depth Elevation

Earthquake Activity

City Distance Mag. Time & Date
Minimum magnitude displayed is 2.5.

Coastal Water Temperatures

Place Temperature

Stations

Nearby Weather Stations

Station Location Temp. Windchill Dew Point Humidity Wind Precip. Elev Updated Type
                   

Watches & Warnings

There are currently no watches in effect.